Time;durP1;ratioP1;P1;durP2;ratioP2;P2;SDS_P1;SDS_P2;PMS_P1;PMS_P2;Temp;Humidity;BMP_temperature;BMP_pressure;BME280_temperature;BME280_humidity;BME280_pressure;Samples;Min_cycle;Max_cycle;Signal;HPM_P1;HPM_P2
2022/06/05 00:02:02;;;;;;;4.60;4.20;;;12.60;99.90;;;;;;5030054;28;20049;-79
2022/06/05 00:04:38;;;;;;;4.75;3.85;;;12.60;99.90;;;;;;5030740;28;20041;-80
2022/06/05 00:07:11;;;;;;;4.60;3.83;;;12.60;99.90;;;;;;5048684;28;20505;-80
2022/06/05 00:10:24;;;;;;;4.13;3.75;;;12.60;99.90;;;;;;5036374;28;20033;-80
2022/06/05 00:13:01;;;;;;;4.33;3.67;;;12.60;99.90;;;;;;5049994;28;20041;-79
2022/06/05 00:15:29;;;;;;;4.85;4.18;;;12.60;99.90;;;;;;5047466;28;20497;-79
2022/06/05 00:17:57;;;;;;;4.22;3.65;;;12.60;99.90;;;;;;5049823;28;20441;-79
2022/06/05 00:20:24;;;;;;;5.53;4.35;;;12.70;99.90;;;;;;5050109;28;20052;-79
2022/06/05 00:22:51;;;;;;;5.80;3.85;;;12.70;99.90;;;;;;5050452;28;20049;-80
2022/06/05 00:25:18;;;;;;;6.45;4.25;;;12.80;99.90;;;;;;5047387;28;20480;-80
2022/06/05 00:27:51;;;;;;;7.18;4.80;;;12.80;99.90;;;;;;5049588;28;20055;-79
2022/06/05 00:30:24;;;;;;;5.50;4.68;;;12.80;99.90;;;;;;5049129;28;20048;-80
2022/06/05 00:32:57;;;;;;;;;;;12.80;99.90;;;;;;5047731;28;20061;-79
2022/06/05 00:35:30;;;;;;;5.07;4.57;;;12.80;99.90;;;;;;5050315;28;19929;-79
2022/06/05 00:38:04;;;;;;;7.50;4.72;;;12.90;99.90;;;;;;5050204;28;20064;-79
2022/06/05 00:40:44;;;;;;;6.80;4.82;;;12.90;99.90;;;;;;5049601;28;20528;-78
2022/06/05 00:43:15;;;;;;;9.10;5.88;;;13.00;99.90;;;;;;5046965;28;20425;-79
2022/06/05 00:45:43;;;;;;;6.90;5.68;;;13.10;99.90;;;;;;5051006;28;20509;-79
2022/06/05 00:48:13;;;;;;;7.45;5.53;;;13.10;99.90;;;;;;5048023;28;20402;-79
2022/06/05 00:50:43;;;;;;;7.47;5.30;;;13.20;99.90;;;;;;5049191;28;20045;-79
2022/06/05 00:53:11;;;;;;;5.43;5.03;;;13.30;99.90;;;;;;5046631;28;20060;-79
2022/06/05 00:55:42;;;;;;;7.53;5.95;;;13.30;99.90;;;;;;5048436;28;20136;-79
2022/06/05 00:58:10;;;;;;;8.70;6.15;;;13.30;99.90;;;;;;5049450;28;20152;-79
2022/06/05 01:00:39;;;;;;;7.38;5.13;;;13.30;99.90;;;;;;5049284;28;20124;-79
2022/06/05 01:03:09;;;;;;;9.15;5.90;;;13.40;99.90;;;;;;5049163;28;20439;-79
2022/06/05 01:05:39;;;;;;;6.43;5.82;;;13.40;99.90;;;;;;5049760;28;20069;-79
2022/06/05 01:08:08;;;;;;;7.75;5.47;;;13.40;99.90;;;;;;5032244;28;20425;-78
2022/06/05 01:10:45;;;;;;;8.18;5.63;;;13.40;99.90;;;;;;5050789;28;20072;-80
2022/06/05 01:13:23;;;;;;;8.73;5.35;;;13.50;99.90;;;;;;5052038;28;20057;-80
2022/06/05 01:15:57;;;;;;;6.78;6.07;;;13.40;99.90;;;;;;5052272;28;20091;-80
2022/06/05 01:18:31;;;;;;;7.78;5.03;;;13.50;99.90;;;;;;5054832;28;20088;-80
2022/06/05 01:21:17;;;;;;;6.45;5.35;;;13.50;99.90;;;;;;5050028;28;20041;-80
2022/06/05 01:23:58;;;;;;;7.13;5.32;;;13.60;99.90;;;;;;5048948;28;20081;-80
2022/06/05 01:26:31;;;;;;;8.25;4.85;;;13.60;99.90;;;;;;5053076;28;20578;-79
2022/06/05 01:29:05;;;;;;;6.32;5.50;;;13.60;99.90;;;;;;5051998;28;20464;-79
2022/06/05 01:31:35;;;;;;;11.95;6.40;;;13.60;99.90;;;;;;5054162;28;20051;-79
2022/06/05 01:34:16;;;;;;;6.45;5.30;;;13.60;99.90;;;;;;5051697;28;20068;-79
2022/06/05 01:36:50;;;;;;;5.72;5.05;;;13.60;99.90;;;;;;5054451;28;20061;-79
2022/06/05 01:39:24;;;;;;;7.32;6.07;;;13.50;99.90;;;;;;5051534;28;20087;-79
2022/06/05 01:41:56;;;;;;;5.68;5.20;;;13.50;99.90;;;;;;5054371;28;20048;-79
2022/06/05 01:44:30;;;;;;;9.00;5.43;;;13.50;99.90;;;;;;5053056;28;20049;-79
2022/06/05 01:47:04;;;;;;;8.38;5.95;;;13.50;99.90;;;;;;5035610;28;20045;-80
2022/06/05 01:49:37;;;;;;;8.25;5.75;;;13.40;99.90;;;;;;5048585;28;20162;-80
2022/06/05 01:52:10;;;;;;;8.93;6.10;;;13.40;99.90;;;;;;5034707;28;20460;-80
2022/06/05 01:54:44;;;;;;;6.10;4.88;;;13.30;99.90;;;;;;5035781;28;20075;-80
2022/06/05 01:57:16;;;;;;;5.95;5.13;;;13.30;99.90;;;;;;5049793;28;20128;-79
2022/06/05 01:59:49;;;;;;;5.78;5.13;;;13.30;99.90;;;;;;5036293;28;20049;-80
2022/06/05 02:02:20;;;;;;;5.72;4.63;;;13.30;99.90;;;;;;5053858;28;20048;-80
2022/06/05 02:04:50;;;;;;;6.35;4.82;;;13.30;99.90;;;;;;5054215;28;20045;-80
2022/06/05 02:07:21;;;;;;;6.10;4.70;;;13.40;99.90;;;;;;5049585;28;20041;-80
2022/06/05 02:09:53;;;;;;;5.95;4.10;;;13.40;99.90;;;;;;5052219;28;20049;-80
2022/06/05 02:12:23;;;;;;;4.87;4.33;;;13.50;99.90;;;;;;5052585;28;20064;-80
2022/06/05 02:14:50;;;;;;;9.77;5.28;;;13.60;99.90;;;;;;5050383;28;20298;-80
2022/06/05 02:17:18;;;;;;;6.30;4.50;;;13.60;99.90;;;;;;5051824;28;20041;-79
2022/06/05 02:19:45;;;;;;;7.28;3.83;;;13.50;99.90;;;;;;5050375;28;20045;-80
2022/06/05 02:22:18;;;;;;;5.78;4.10;;;13.50;99.90;;;;;;5052190;28;20053;-80
2022/06/05 02:24:45;;;;;;;6.53;4.18;;;13.50;99.90;;;;;;5049480;28;20463;-80
2022/06/05 02:27:12;;;;;;;7.22;4.05;;;13.50;99.90;;;;;;5051817;28;20052;-80
2022/06/05 02:29:41;;;;;;;5.97;3.53;;;13.50;99.90;;;;;;5033278;28;20560;-79
2022/06/05 02:32:31;;;;;;;5.90;4.38;;;13.60;99.90;;;;;;5049739;28;20578;-79
2022/06/05 02:35:10;;;;;;;6.50;4.30;;;13.70;99.90;;;;;;5046900;28;20143;-80
2022/06/05 02:37:51;;;;;;;6.72;3.72;;;13.70;99.90;;;;;;5051487;28;20512;-79
2022/06/05 02:40:29;;;;;;;6.05;5.00;;;13.70;99.90;;;;;;5033894;28;20056;-79
2022/06/05 02:43:03;;;;;;;3.80;3.42;;;13.80;99.90;;;;;;5049463;28;21750;-79
2022/06/05 02:45:41;;;;;;;8.30;4.00;;;13.80;99.90;;;;;;5035081;28;20432;-79
2022/06/05 02:48:13;;;;;;;6.22;3.80;;;13.90;99.90;;;;;;5051245;28;20056;-78
2022/06/05 02:50:44;;;;;;;5.85;3.95;;;14.00;99.90;;;;;;5051498;28;20064;-80
2022/06/05 02:53:13;;;;;;;4.10;3.70;;;14.00;99.90;;;;;;5050150;28;20390;-80
2022/06/05 02:55:41;;;;;;;6.20;4.30;;;14.10;99.90;;;;;;5047587;28;20531;-80
2022/06/05 02:58:08;;;;;;;4.75;3.70;;;14.10;99.90;;;;;;5051069;28;20052;-80
2022/06/05 03:00:39;;;;;;;5.95;4.63;;;14.20;99.90;;;;;;5051428;28;20077;-81
2022/06/05 03:05:52;;;;;;;5.75;3.83;;;14.30;99.90;;;;;;5033897;28;20435;-80
2022/06/05 03:08:20;;;;;;;4.93;4.10;;;14.30;99.90;;;;;;5050413;28;20045;-80
2022/06/05 03:10:47;;;;;;;7.80;4.43;;;14.30;99.90;;;;;;5049505;28;20473;-81
2022/06/05 03:13:15;;;;;;;5.57;4.40;;;14.30;99.90;;;;;;5051867;28;20094;-81
2022/06/05 03:15:44;;;;;;;7.55;4.45;;;14.40;99.90;;;;;;5049920;28;20065;-80
2022/06/05 03:18:13;;;;;;;6.35;4.03;;;14.40;99.90;;;;;;5050984;28;20052;-81
2022/06/05 03:20:40;;;;;;;6.07;3.72;;;14.40;99.90;;;;;;5048070;28;20791;-81
2022/06/05 03:23:09;;;;;;;10.52;4.28;;;14.50;99.90;;;;;;5052239;28;20446;-81
2022/06/05 03:25:39;;;;;;;6.00;3.65;;;14.60;99.90;;;;;;5050403;28;20057;-80
2022/06/05 03:28:07;;;;;;;6.72;3.47;;;14.70;99.90;;;;;;5050743;28;20102;-81
2022/06/05 03:30:38;;;;;;;4.88;3.65;;;14.70;99.90;;;;;;5049470;28;20041;-81
2022/06/05 03:33:07;;;;;;;3.92;3.50;;;14.80;99.90;;;;;;5049924;28;20509;-80
2022/06/05 03:35:37;;;;;;;4.25;3.83;;;14.80;99.90;;;;;;5049326;28;20052;-80
2022/06/05 03:38:05;;;;;;;8.25;3.45;;;14.90;99.90;;;;;;5050764;28;20049;-80
2022/06/05 03:40:33;;;;;;;5.18;3.10;;;14.90;99.90;;;;;;5050842;28;20041;-80
2022/06/05 03:43:00;;;;;;;4.57;3.13;;;14.90;99.90;;;;;;5032503;28;20048;-79
2022/06/05 03:45:28;;;;;;;4.15;3.15;;;14.90;99.90;;;;;;5050203;28;20048;-79
2022/06/05 03:47:55;;;;;;;4.65;3.10;;;15.00;99.90;;;;;;5049212;28;20076;-78
2022/06/05 03:50:24;;;;;;;4.75;3.60;;;15.10;99.90;;;;;;5051514;28;20148;-78
2022/06/05 03:52:51;;;;;;;5.35;3.60;;;15.20;99.90;;;;;;5051271;28;20047;-79
2022/06/05 03:55:21;;;;;;;5.00;3.85;;;15.30;99.90;;;;;;5050606;28;20086;-80
2022/06/05 03:57:49;;;;;;;5.45;4.13;;;15.40;99.90;;;;;;5048633;28;20048;-80
2022/06/05 04:00:18;;;;;;;7.97;4.57;;;15.40;99.90;;;;;;5050398;28;20059;-80
2022/06/05 04:02:46;;;;;;;4.85;3.58;;;15.50;99.90;;;;;;5049452;28;20057;-80
2022/06/05 04:05:16;;;;;;;4.53;3.40;;;15.60;99.90;;;;;;5050433;28;20463;-79
2022/06/05 04:07:45;;;;;;;4.00;3.40;;;15.70;99.90;;;;;;5048093;28;20044;-78
2022/06/05 04:10:12;;;;;;;5.05;3.08;;;15.80;99.90;;;;;;5049525;28;20465;-78
2022/06/05 04:12:40;;;;;;;6.30;3.65;;;15.90;99.90;;;;;;5050098;28;20413;-78
2022/06/05 04:15:08;;;;;;;4.75;2.90;;;16.00;99.90;;;;;;5050901;28;20056;-79
2022/06/05 04:17:36;;;;;;;5.93;3.58;;;16.00;99.90;;;;;;5049181;28;20044;-78
2022/06/05 04:20:04;;;;;;;4.35;3.30;;;16.10;99.90;;;;;;5048952;28;20221;-78
2022/06/05 04:22:31;;;;;;;6.50;3.40;;;16.10;99.90;;;;;;5048860;28;20045;-78
2022/06/05 04:24:59;;;;;;;3.53;3.05;;;16.20;99.90;;;;;;5037637;28;20053;-77
2022/06/05 04:27:27;;;;;;;5.22;3.15;;;16.20;99.90;;;;;;5045874;28;20120;-77
2022/06/05 04:29:54;;;;;;;6.38;3.00;;;16.20;99.90;;;;;;5037640;28;20059;-77
2022/06/05 04:32:21;;;;;;;4.22;3.10;;;16.20;99.90;;;;;;5033069;28;20056;-77
2022/06/05 04:34:51;;;;;;;4.03;3.28;;;16.20;99.90;;;;;;5038041;28;20047;-78
2022/06/05 04:37:18;;;;;;;2.70;2.50;;;16.20;99.90;;;;;;5033545;28;20060;-79
2022/06/05 04:39:46;;;;;;;4.90;3.20;;;16.10;99.90;;;;;;5045538;28;20050;-80
2022/06/05 04:42:14;;;;;;;8.30;4.70;;;16.00;99.90;;;;;;5029996;28;20057;-80
2022/06/05 04:44:42;;;;;;;6.47;3.72;;;16.00;99.90;;;;;;5047214;28;20044;-81
2022/06/05 04:47:09;;;;;;;4.13;3.33;;;16.00;99.90;;;;;;5051037;28;20049;-81
2022/06/05 04:49:36;;;;;;;6.50;3.53;;;16.00;99.90;;;;;;5049849;28;20175;-81
2022/06/05 04:52:04;;;;;;;6.20;3.35;;;16.10;99.90;;;;;;5048990;28;20144;-81
2022/06/05 04:54:31;;;;;;;4.63;3.20;;;16.10;99.90;;;;;;5042372;28;20052;-81
2022/06/05 04:56:59;;;;;;;4.50;3.03;;;16.10;99.90;;;;;;5042693;28;20053;-81
2022/06/05 04:59:27;;;;;;;7.75;3.50;;;16.10;99.90;;;;;;5028973;28;20045;-82
2022/06/05 05:01:55;;;;;;;3.47;3.03;;;16.20;99.90;;;;;;5045279;28;20286;-81
2022/06/05 05:04:22;;;;;;;5.70;3.03;;;16.30;99.90;;;;;;5050816;28;20047;-80
2022/06/05 05:06:49;;;;;;;6.88;3.53;;;16.40;99.90;;;;;;5036158;28;20092;-80
2022/06/05 05:09:16;;;;;;;4.90;3.53;;;16.50;99.90;;;;;;5036606;28;20072;-79
2022/06/05 05:11:44;;;;;;;6.68;3.88;;;16.70;99.90;;;;;;5048410;28;20045;-79
2022/06/05 05:14:11;;;;;;;5.40;3.08;;;16.80;99.90;;;;;;5050881;28;20136;-80
2022/06/05 05:16:40;;;;;;;4.65;2.53;;;17.00;99.90;;;;;;5040379;28;20046;-80
2022/06/05 05:19:08;;;;;;;7.82;3.20;;;17.10;99.90;;;;;;5048535;28;20505;-79
2022/06/05 05:21:36;;;;;;;4.00;3.05;;;17.30;99.90;;;;;;5048945;28;20072;-79
2022/06/05 05:24:03;;;;;;;5.03;3.10;;;17.50;99.90;;;;;;5049793;28;20069;-78
2022/06/05 05:26:33;;;;;;;3.15;2.90;;;17.60;99.90;;;;;;5038934;28;20080;-77
2022/06/05 05:29:02;;;;;;;6.55;3.22;;;17.70;99.90;;;;;;5047634;28;20712;-77
2022/06/05 05:31:31;;;;;;;4.35;3.17;;;17.70;99.90;;;;;;5048425;28;20053;-75
2022/06/05 05:34:00;;;;;;;3.42;2.85;;;17.80;99.90;;;;;;5049923;28;20060;-75
2022/06/05 05:36:28;;;;;;;6.30;2.55;;;17.90;99.90;;;;;;5037921;28;20140;-74
2022/06/05 05:44:28;;;;;;;3.75;3.35;;;18.80;99.90;;;;;;5048348;28;20417;-74
2022/06/05 05:46:55;;;;;;;4.00;2.40;;;19.10;99.90;;;;;;5040600;28;20050;-78
2022/06/05 05:49:24;;;;;;;4.55;2.40;;;19.40;99.90;;;;;;5045927;28;20055;-79
2022/06/05 05:51:52;;;;;;;4.40;2.80;;;19.70;99.90;;;;;;5050940;28;20073;-79
2022/06/05 05:54:19;;;;;;;2.65;2.17;;;20.00;99.90;;;;;;5047486;28;20156;-79
2022/06/05 05:56:46;;;;;;;5.15;2.40;;;20.30;99.90;;;;;;5054085;28;20118;-80
2022/06/05 05:59:13;;;;;;;2.60;2.35;;;20.50;99.90;;;;;;5050213;28;20107;-78
2022/06/05 06:01:40;;;;;;;4.47;3.10;;;20.70;99.90;;;;;;5043696;28;20051;-77
2022/06/05 06:04:08;;;;;;;2.80;2.60;;;20.80;99.90;;;;;;5045043;28;20686;-75
2022/06/05 06:06:40;;;;;;;3.28;2.95;;;21.00;99.90;;;;;;5047148;28;20048;-75
2022/06/05 06:09:07;;;;;;;2.40;2.20;;;21.10;99.90;;;;;;5049055;28;20110;-77
2022/06/05 06:11:34;;;;;;;7.32;4.97;;;21.20;99.90;;;;;;5038073;28;20085;-76
2022/06/05 06:14:02;;;;;;;5.40;3.33;;;21.30;99.90;;;;;;5052360;28;20068;-77
2022/06/05 06:16:29;;;;;;;3.17;2.88;;;21.40;99.90;;;;;;5049694;28;20037;-76
2022/06/05 06:18:57;;;;;;;4.07;2.60;;;21.40;99.90;;;;;;5050274;28;20049;-77
2022/06/05 06:21:25;;;;;;;4.45;2.78;;;21.40;99.90;;;;;;5033496;28;20040;-76
2022/06/05 06:23:54;;;;;;;9.55;3.08;;;21.30;99.90;;;;;;5052931;28;20481;-77
2022/06/05 06:26:22;;;;;;;6.90;3.00;;;21.30;99.90;;;;;;5050148;28;20132;-77
2022/06/05 06:28:49;;;;;;;2.78;2.60;;;21.60;99.90;;;;;;5053613;28;20079;-77
2022/06/05 06:31:18;;;;;;;2.75;2.55;;;21.90;99.90;;;;;;5050643;28;20051;-77
2022/06/05 06:33:48;;;;;;;3.95;2.00;;;22.40;99.90;;;;;;5029960;28;20430;-77
2022/06/05 06:36:18;;;;;;;3.72;2.40;;;22.90;99.90;;;;;;5048129;28;20053;-77
2022/06/05 06:38:45;;;;;;;3.90;2.55;;;23.30;99.90;;;;;;5051522;28;20049;-76
2022/06/05 06:41:17;;;;;;;3.00;2.42;;;23.60;99.90;;;;;;5044245;28;20059;-76
2022/06/05 06:43:45;;;;;;;3.07;2.77;;;23.80;99.90;;;;;;5050123;28;20049;-76
2022/06/05 06:46:16;;;;;;;2.38;2.17;;;23.90;99.90;;;;;;5049452;28;20136;-76
2022/06/05 06:48:44;;;;;;;4.15;3.40;;;23.90;99.70;;;;;;5032280;28;20099;-77
2022/06/05 06:51:12;;;;;;;3.95;2.60;;;24.00;99.90;;;;;;5051205;28;20064;-74
2022/06/05 06:53:41;;;;;;;3.53;2.67;;;24.40;97.50;;;;;;5048897;28;20111;-74
2022/06/05 06:56:10;;;;;;;4.00;2.38;;;24.50;95.50;;;;;;5039081;28;20053;-74
2022/06/05 06:58:41;;;;;;;6.38;2.40;;;24.50;94.90;;;;;;5038758;28;20592;-74
2022/06/05 07:01:12;;;;;;;3.80;2.63;;;24.50;94.20;;;;;;5033306;28;20085;-74
2022/06/05 07:03:39;;;;;;;4.13;2.38;;;24.50;94.50;;;;;;5047516;28;20453;-75
2022/06/05 07:06:09;;;;;;;2.35;2.25;;;24.30;93.40;;;;;;5052687;28;20049;-79
2022/06/05 07:08:37;;;;;;;4.28;2.55;;;23.90;94.00;;;;;;5046513;28;20513;-77
2022/06/05 07:11:06;;;;;;;2.78;2.30;;;23.90;94.50;;;;;;5048350;28;20128;-76
2022/06/05 07:13:34;;;;;;;2.38;2.17;;;24.10;94.80;;;;;;5048305;28;20049;-77
2022/06/05 07:16:02;;;;;;;4.05;2.42;;;24.50;93.10;;;;;;5043537;28;20532;-78
2022/06/05 07:18:30;;;;;;;3.90;2.75;;;25.00;90.60;;;;;;5049530;28;20049;-77
2022/06/05 07:20:57;;;;;;;6.10;2.83;;;25.30;89.20;;;;;;5049407;28;20061;-78
2022/06/05 07:23:25;;;;;;;2.95;2.47;;;25.40;87.00;;;;;;5050293;28;20064;-78
2022/06/05 07:25:53;;;;;;;5.82;3.35;;;25.70;85.90;;;;;;5052386;28;20107;-76
2022/06/05 07:28:20;;;;;;;6.10;2.25;;;26.20;82.60;;;;;;5051373;28;20053;-77
2022/06/05 07:30:49;;;;;;;4.68;2.22;;;26.60;81.80;;;;;;5042169;28;20083;-77
2022/06/05 07:33:18;;;;;;;5.72;2.20;;;27.20;76.20;;;;;;5051307;28;20136;-77
2022/06/05 07:35:45;;;;;;;5.20;2.72;;;27.40;74.90;;;;;;5042002;28;20088;-76
2022/06/05 07:38:13;;;;;;;4.10;2.70;;;27.60;74.10;;;;;;5037611;28;20069;-78
2022/06/05 07:40:41;;;;;;;2.63;2.33;;;27.90;72.90;;;;;;5024919;28;20045;-76
2022/06/05 07:43:09;;;;;;;6.70;2.17;;;28.10;70.80;;;;;;5045464;28;20091;-77
2022/06/05 07:45:38;;;;;;;17.17;15.38;;;28.40;69.70;;;;;;5050393;28;20458;-77
2022/06/05 07:48:06;;;;;;;3.55;2.20;;;28.70;66.50;;;;;;5046958;28;20048;-78
2022/06/05 07:54:26;;;;;;;4.63;2.38;;;28.90;64.20;;;;;;5029430;28;20133;-78
2022/06/05 07:56:07;;;;;;;4.15;2.53;;;28.30;65.60;;;;;;5044320;28;20416;-77
2022/06/05 07:58:36;;;;;;;7.85;2.42;;;27.80;64.90;;;;;;5039278;28;20033;-76
2022/06/05 08:01:06;;;;;;;3.15;2.30;;;27.20;67.60;;;;;;5038420;28;20049;-76
2022/06/05 08:03:34;;;;;;;5.78;2.70;;;26.70;68.60;;;;;;5029836;28;20413;-78
2022/06/05 08:06:02;;;;;;;14.65;3.30;;;26.80;69.70;;;;;;5040255;28;20044;-79
2022/06/05 08:08:29;;;;;;;3.28;2.70;;;26.70;68.40;;;;;;5044182;28;20505;-77
2022/06/05 08:11:03;;;;;;;3.33;2.53;;;26.70;69.30;;;;;;5047310;28;20057;-76
2022/06/05 08:13:30;;;;;;;6.75;2.55;;;26.80;68.80;;;;;;5042360;28;20053;-75
2022/06/05 08:15:58;;;;;;;2.45;2.25;;;26.60;68.50;;;;;;5050960;28;20103;-76
2022/06/05 08:18:25;;;;;;;2.42;2.30;;;26.60;69.00;;;;;;5047356;28;20045;-75
2022/06/05 08:20:53;;;;;;;2.50;2.15;;;26.50;69.40;;;;;;5050444;28;20497;-74
2022/06/05 08:23:22;;;;;;;2.28;1.80;;;26.50;71.30;;;;;;5049137;28;20057;-75
2022/06/05 08:25:49;;;;;;;5.43;2.13;;;26.90;68.00;;;;;;5043551;28;20099;-75
2022/06/05 08:28:17;;;;;;;3.58;1.52;;;27.10;64.50;;;;;;5034830;28;20583;-76
2022/06/05 08:30:44;;;;;;;1.92;1.55;;;27.40;64.70;;;;;;5044969;28;20051;-75
2022/06/05 08:33:11;;;;;;;3.63;2.10;;;27.50;65.70;;;;;;5048398;28;20099;-76
2022/06/05 08:35:39;;;;;;;5.78;2.78;;;27.60;65.90;;;;;;5045503;28;20045;-75
2022/06/05 08:43:53;;;;;;;3.63;2.33;;;28.50;64.50;;;;;;5028705;28;20056;-76
2022/06/05 08:46:26;;;;;;;3.67;2.25;;;28.90;63.50;;;;;;5042396;28;20045;-77
2022/06/05 08:48:57;;;;;;;4.93;2.30;;;29.20;63.30;;;;;;5040282;28;20044;-76
2022/06/05 08:51:40;;;;;;;2.50;2.30;;;29.70;61.80;;;;;;5039909;28;20053;-75
2022/06/05 08:54:12;;;;;;;2.22;2.03;;;29.90;61.10;;;;;;5046477;28;20052;-74
2022/06/05 08:56:43;;;;;;;5.18;2.13;;;30.10;59.90;;;;;;5042421;28;20056;-75
2022/06/05 08:59:17;;;;;;;1.92;1.83;;;30.50;59.20;;;;;;5028718;28;20122;-76
2022/06/05 09:01:52;;;;;;;3.13;1.70;;;30.50;57.80;;;;;;5040466;28;20057;-76
2022/06/05 09:04:33;;;;;;;2.15;1.92;;;30.70;56.60;;;;;;5047740;28;20061;-74
2022/06/05 09:07:05;;;;;;;2.35;1.52;;;30.70;55.20;;;;;;5038575;28;20474;-76
2022/06/05 09:09:43;;;;;;;3.50;1.85;;;31.00;54.20;;;;;;5044581;28;20057;-77
2022/06/05 09:12:21;;;;;;;14.95;1.85;;;31.20;53.40;;;;;;5047638;28;20152;-74
2022/06/05 09:14:57;;;;;;;4.10;2.35;;;31.30;52.40;;;;;;5046802;28;20045;-75
2022/06/05 09:17:27;;;;;;;2.25;1.55;;;31.10;52.80;;;;;;5044384;28;20144;-77
2022/06/05 09:19:57;;;;;;;5.00;2.00;;;30.90;52.30;;;;;;5043570;28;20119;-77
2022/06/05 09:22:33;;;;;;;2.35;1.55;;;30.80;53.10;;;;;;5038040;28;20049;-76
2022/06/05 09:25:15;;;;;;;3.22;1.38;;;30.90;52.80;;;;;;5040982;28;20069;-78
2022/06/05 09:27:49;;;;;;;;;;;30.90;53.20;;;;;;5039500;28;20034;-77
2022/06/05 09:30:23;;;;;;;4.22;1.75;;;30.40;53.40;;;;;;5048142;28;19924;-76
2022/06/05 09:33:03;;;;;;;2.78;1.90;;;30.40;53.00;;;;;;5041451;28;20048;-79
2022/06/05 09:35:37;;;;;;;7.60;3.45;;;30.60;53.40;;;;;;5049322;28;20571;-76
2022/06/05 09:38:12;;;;;;;3.67;1.95;;;30.90;53.10;;;;;;5040022;28;20045;-77
2022/06/05 09:40:46;;;;;;;1.63;1.55;;;31.20;53.10;;;;;;5027260;28;20044;-77
2022/06/05 09:43:29;;;;;;;1.67;1.50;;;31.30;52.30;;;;;;5043971;28;20140;-75
2022/06/05 09:46:15;;;;;;;1.98;1.23;;;31.40;52.20;;;;;;5047743;28;20049;-75
2022/06/05 09:48:51;;;;;;;5.07;1.63;;;31.60;51.60;;;;;;5043297;28;20084;-75
2022/06/05 09:51:20;;;;;;;1.52;1.42;;;31.90;50.90;;;;;;5041651;28;20051;-75
2022/06/05 09:53:54;;;;;;;4.00;1.27;;;32.00;50.30;;;;;;5044031;28;20041;-77
2022/06/05 09:56:35;;;;;;;2.08;1.88;;;31.90;51.00;;;;;;5058069;28;20041;-77
2022/06/05 09:59:17;;;;;;;6.07;1.42;;;32.00;50.60;;;;;;5046596;28;20425;-76
2022/06/05 10:01:52;;;;;;;3.90;1.38;;;32.30;49.50;;;;;;5045540;28;20102;-78
2022/06/05 10:04:21;;;;;;;6.95;1.42;;;32.40;48.80;;;;;;5050175;28;20422;-79
2022/06/05 10:06:52;;;;;;;2.45;1.20;;;32.70;48.70;;;;;;5037331;28;20041;-79
2022/06/05 10:09:24;;;;;;;3.03;1.23;;;33.30;48.10;;;;;;5023351;28;20261;-79
2022/06/05 10:11:57;;;;;;;1.42;1.33;;;33.10;47.40;;;;;;5034433;28;20052;-80
2022/06/05 10:14:39;;;;;;;2.88;1.45;;;32.80;47.50;;;;;;5048944;28;20618;-80
2022/06/05 10:17:34;;;;;;;3.80;1.27;;;32.80;47.20;;;;;;5032939;28;20102;-78
2022/06/05 10:20:20;;;;;;;6.85;1.55;;;32.90;46.60;;;;;;5024146;28;20042;-78
2022/06/05 10:22:53;;;;;;;2.40;1.95;;;32.70;47.90;;;;;;5037756;28;20044;-77
2022/06/05 10:25:29;;;;;;;7.05;2.75;;;32.40;48.30;;;;;;5051253;28;20053;-82
2022/06/05 10:28:00;;;;;;;1.70;1.55;;;32.00;48.50;;;;;;5041125;28;20044;-85
2022/06/05 10:30:34;;;;;;;4.78;1.20;;;31.70;49.10;;;;;;5050909;28;20107;-79
2022/06/05 10:33:08;;;;;;;2.53;1.25;;;31.60;48.40;;;;;;5047736;28;20138;-81
2022/06/05 10:35:47;;;;;;;1.20;1.10;;;31.80;49.20;;;;;;5048921;28;20509;-82
2022/06/05 10:38:31;;;;;;;1.88;1.17;;;32.00;48.60;;;;;;5045576;28;20059;-79
2022/06/05 10:41:04;;;;;;;2.55;1.30;;;32.30;48.50;;;;;;5047403;28;20065;-76
2022/06/05 10:43:34;;;;;;;6.15;1.27;;;32.20;47.30;;;;;;5049925;28;20047;-75
2022/06/05 10:46:06;;;;;;;4.78;4.22;;;31.30;47.40;;;;;;5049600;28;20045;-74
2022/06/05 10:48:41;;;;;;;;;;;30.00;49.00;;;;;;5052213;28;20059;-75
2022/06/05 10:51:25;;;;;;;5.18;1.13;;;29.20;50.70;;;;;;5034613;28;19924;-75
2022/06/05 10:53:58;;;;;;;4.53;1.33;;;29.20;50.80;;;;;;5043653;28;20072;-76
2022/06/05 10:56:33;;;;;;;1.13;0.98;;;30.10;50.50;;;;;;5048167;28;20516;-75
2022/06/05 10:59:08;;;;;;;3.00;1.25;;;31.00;49.50;;;;;;5042071;28;20481;-75
2022/06/05 11:01:49;;;;;;;6.10;1.33;;;32.00;47.40;;;;;;5047126;28;20076;-76
2022/06/05 11:04:29;;;;;;;1.75;0.98;;;32.60;46.50;;;;;;5042141;28;20421;-76
2022/06/05 11:07:03;;;;;;;0.90;0.90;;;32.70;46.20;;;;;;5040630;28;20454;-76
2022/06/05 11:09:42;;;;;;;3.05;1.05;;;32.10;46.00;;;;;;5039596;28;20033;-75
2022/06/05 11:15:16;;;;;;;4.70;0.95;;;30.00;48.10;;;;;;5039443;28;20045;-76
2022/06/05 11:17:52;;;;;;;5.68;1.00;;;29.70;48.90;;;;;;5043343;28;20044;-78
2022/06/05 11:20:23;;;;;;;3.10;0.90;;;29.80;48.50;;;;;;5037742;28;20588;-75
2022/06/05 11:22:56;;;;;;;4.65;1.20;;;30.10;48.20;;;;;;5047537;28;20036;-74
2022/06/05 11:25:27;;;;;;;4.07;1.00;;;31.20;47.00;;;;;;5051538;28;20061;-76
2022/06/05 11:28:18;;;;;;;6.72;1.52;;;30.90;46.50;;;;;;5047769;28;20068;-76
2022/06/05 11:30:51;;;;;;;2.05;0.85;;;30.30;47.70;;;;;;5047927;28;20055;-76
2022/06/05 11:33:23;;;;;;;0.70;0.60;;;30.30;47.80;;;;;;5041501;28;20436;-75
2022/06/05 11:36:08;;;;;;;4.70;1.10;;;30.60;47.30;;;;;;5039843;28;20049;-76
2022/06/05 11:38:47;;;;;;;6.38;1.23;;;31.50;46.10;;;;;;5040003;28;20464;-73
2022/06/05 11:41:25;;;;;;;0.63;0.60;;;32.30;44.90;;;;;;5037412;28;20045;-76
2022/06/05 11:44:14;;;;;;;4.00;0.85;;;33.00;43.80;;;;;;5041323;28;20045;-75
2022/06/05 11:46:52;;;;;;;2.00;1.00;;;33.60;43.60;;;;;;5021904;28;20468;-75
2022/06/05 11:49:29;;;;;;;4.18;0.93;;;33.30;42.50;;;;;;5044451;28;20045;-75
2022/06/05 11:52:05;;;;;;;6.38;1.13;;;33.20;42.60;;;;;;5049202;28;20394;-76
2022/06/05 11:54:41;;;;;;;4.10;1.23;;;33.20;42.60;;;;;;5045220;28;20045;-75
2022/06/05 11:57:15;;;;;;;2.28;0.95;;;33.60;42.80;;;;;;5037684;28;20464;-75
2022/06/05 11:59:48;;;;;;;3.53;0.90;;;34.30;41.80;;;;;;5044923;28;20072;-75
2022/06/05 12:02:46;;;;;;;4.50;1.05;;;34.90;41.30;;;;;;5047184;28;20044;-75
2022/06/05 12:05:23;;;;;;;0.98;0.85;;;34.90;41.10;;;;;;5034742;28;20081;-76
2022/06/05 12:07:51;;;;;;;1.13;0.70;;;33.40;42.20;;;;;;5035234;28;20041;-75
2022/06/05 12:10:26;;;;;;;1.08;0.82;;;32.50;42.20;;;;;;5047464;28;20052;-75
2022/06/05 12:13:02;;;;;;;0.93;0.93;;;32.10;43.40;;;;;;5041741;28;20049;-76
2022/06/05 12:15:50;;;;;;;1.70;1.13;;;32.30;43.30;;;;;;5044500;28;20091;-76
2022/06/05 12:18:23;;;;;;;1.73;1.63;;;32.90;43.30;;;;;;5019817;28;20568;-76
2022/06/05 12:20:56;;;;;;;1.98;1.00;;;33.50;42.00;;;;;;5059897;28;20057;-76
2022/06/05 12:23:33;;;;;;;1.33;0.82;;;32.60;42.40;;;;;;5044746;28;20056;-78
2022/06/05 12:26:02;;;;;;;1.25;0.70;;;31.40;43.40;;;;;;5045435;28;20092;-76
2022/06/05 12:28:39;;;;;;;4.45;0.85;;;29.70;45.70;;;;;;5042583;28;20040;-75
2022/06/05 12:31:13;;;;;;;3.65;1.00;;;28.30;47.90;;;;;;5042798;28;20568;-73
2022/06/05 12:33:47;;;;;;;2.30;1.10;;;27.10;50.10;;;;;;5042075;28;20040;-73
2022/06/05 12:36:22;;;;;;;1.48;1.20;;;26.20;51.80;;;;;;5025594;28;20056;-75
2022/06/05 12:38:54;;;;;;;2.42;0.90;;;25.50;53.10;;;;;;5039477;28;20074;-76
2022/06/05 12:41:25;;;;;;;1.40;1.10;;;25.40;54.00;;;;;;5044737;28;20419;-76
2022/06/05 12:44:05;;;;;;;4.25;1.10;;;25.60;54.10;;;;;;5044355;28;20057;-77
2022/06/05 12:46:38;;;;;;;2.60;0.90;;;26.50;52.90;;;;;;5044329;28;20397;-74
2022/06/05 12:49:29;;;;;;;2.25;0.98;;;27.20;52.30;;;;;;5045352;28;20346;-77
2022/06/05 12:52:20;;;;;;;1.50;1.40;;;26.50;52.20;;;;;;5023907;28;20067;-77
2022/06/05 12:54:54;;;;;;;3.20;1.23;;;25.50;53.90;;;;;;5029639;28;20514;-78
2022/06/05 12:57:29;;;;;;;6.07;1.40;;;24.70;56.30;;;;;;5032673;28;20482;-75
2022/06/05 13:00:01;;;;;;;4.30;1.33;;;23.90;58.30;;;;;;5038602;28;20052;-78
2022/06/05 13:02:35;;;;;;;2.50;1.50;;;23.40;59.90;;;;;;5045413;28;20132;-79
2022/06/05 13:05:14;;;;;;;2.78;1.60;;;22.90;62.00;;;;;;5044750;28;20422;-78
2022/06/05 13:07:53;;;;;;;1.65;1.50;;;22.50;64.70;;;;;;5027447;28;20462;-80
2022/06/05 13:10:33;;;;;;;2.75;1.52;;;22.30;67.00;;;;;;5046712;28;20042;-78
2022/06/05 13:13:19;;;;;;;2.50;1.48;;;22.10;68.20;;;;;;5030250;28;20506;-78
2022/06/05 13:15:54;;;;;;;2.55;1.67;;;21.80;67.70;;;;;;5028109;28;20077;-79
2022/06/05 13:18:29;;;;;;;5.30;1.75;;;21.70;67.60;;;;;;5031131;28;20052;-78
2022/06/05 13:21:10;;;;;;;1.73;1.38;;;21.70;69.00;;;;;;5037523;28;20056;-78
2022/06/05 13:23:45;;;;;;;2.33;1.58;;;22.00;69.50;;;;;;5037200;28;20505;-83
2022/06/05 13:26:22;;;;;;;2.55;1.80;;;22.30;69.00;;;;;;5038127;28;20048;-84
2022/06/05 13:28:56;;;;;;;2.28;2.08;;;22.60;66.70;;;;;;5038490;28;20041;-80
2022/06/05 13:31:29;;;;;;;1.77;1.67;;;22.90;65.10;;;;;;5033487;28;20050;-78
2022/06/05 13:34:08;;;;;;;1.90;1.77;;;23.70;63.40;;;;;;5041189;28;20579;-79